Time;durP1;ratioP1;P1;durP2;ratioP2;P2;SDS_P1;SDS_P2;PMS_P1;PMS_P2;Temp;Humidity;BMP_temperature;BMP_pressure;BME280_temperature;BME280_humidity;BME280_pressure;Samples;Min_cycle;Max_cycle;Signal;HPM_P1;HPM_P2
2021/06/14 00:01:10;;;;;;;2.33;2.13;;;20.00;99.90;;;;;;5055960;28;20480;-73
2021/06/14 00:03:37;;;;;;;2.88;2.08;;;20.00;99.90;;;;;;5057284;28;20037;-73
2021/06/14 00:06:03;;;;;;;1.90;1.80;;;20.00;99.90;;;;;;5057756;28;20041;-73
2021/06/14 00:08:29;;;;;;;2.33;1.80;;;19.90;99.90;;;;;;5056836;28;20053;-74
2021/06/14 00:10:57;;;;;;;2.30;1.80;;;19.90;99.90;;;;;;5057039;28;20052;-73
2021/06/14 00:13:24;;;;;;;2.00;1.90;;;19.80;99.90;;;;;;5057080;28;20041;-73
2021/06/14 00:15:51;;;;;;;3.38;2.03;;;19.70;99.90;;;;;;5056856;28;20106;-73
2021/06/14 00:18:20;;;;;;;2.50;2.25;;;19.70;99.90;;;;;;5057045;28;20086;-73
2021/06/14 00:20:55;;;;;;;4.18;2.08;;;19.70;99.90;;;;;;5056894;28;20033;-73
2021/06/14 00:23:23;;;;;;;2.63;1.80;;;19.70;99.90;;;;;;5056516;28;20068;-73
2021/06/14 00:25:50;;;;;;;2.08;1.88;;;19.70;99.90;;;;;;5057008;28;20044;-73
2021/06/14 00:28:17;;;;;;;3.40;2.10;;;19.70;99.90;;;;;;5056826;28;20508;-73
2021/06/14 00:30:45;;;;;;;2.22;2.03;;;19.60;99.90;;;;;;5056705;28;20041;-73
2021/06/14 00:33:12;;;;;;;2.10;1.90;;;19.60;99.90;;;;;;5056506;28;20048;-73
2021/06/14 00:35:39;;;;;;;2.17;1.90;;;19.60;99.90;;;;;;5056730;28;20039;-73
2021/06/14 00:38:05;;;;;;;2.17;2.00;;;19.60;99.90;;;;;;5056862;28;20045;-73
2021/06/14 00:40:32;;;;;;;2.03;1.80;;;19.60;99.90;;;;;;5056451;28;20044;-73
2021/06/14 00:42:59;;;;;;;7.63;1.58;;;19.60;99.90;;;;;;5056837;28;20071;-73
2021/06/14 00:45:30;;;;;;;1.80;1.70;;;19.50;99.90;;;;;;5056870;28;20048;-73
2021/06/14 00:47:57;;;;;;;3.67;2.10;;;19.40;99.90;;;;;;5056156;28;20114;-73
2021/06/14 00:51:00;;;;;;;3.85;2.33;;;19.40;99.90;;;;;;5056076;28;20492;-73
2021/06/14 00:53:35;;;;;;;6.38;2.25;;;19.40;99.90;;;;;;5013950;28;20188;-73
2021/06/14 00:56:04;;;;;;;4.80;2.35;;;19.30;99.90;;;;;;5051372;28;20094;-73
2021/06/14 00:58:29;;;;;;;3.17;1.95;;;19.30;99.90;;;;;;5056298;28;20059;-73
2021/06/14 01:00:56;;;;;;;4.13;1.90;;;19.30;99.90;;;;;;5055987;28;20044;-73
2021/06/14 01:03:25;;;;;;;2.78;2.13;;;19.40;99.90;;;;;;5055888;28;20533;-73
2021/06/14 01:05:55;;;;;;;2.65;1.88;;;19.20;99.90;;;;;;5056368;28;20140;-73
2021/06/14 01:08:20;;;;;;;2.60;2.05;;;19.20;99.90;;;;;;5055831;28;20055;-73
2021/06/14 01:10:49;;;;;;;2.45;1.88;;;19.20;99.90;;;;;;5055570;28;20470;-73
2021/06/14 01:13:37;;;;;;;3.47;2.40;;;19.20;99.90;;;;;;5055272;28;20041;-73
2021/06/14 01:16:16;;;;;;;2.33;1.92;;;19.20;99.90;;;;;;5056148;28;20037;-73
2021/06/14 01:19:00;;;;;;;2.25;2.00;;;19.20;99.90;;;;;;5055612;28;20040;-73
2021/06/14 01:21:40;;;;;;;5.68;2.30;;;19.10;99.90;;;;;;5055830;28;20043;-73
2021/06/14 01:24:29;;;;;;;5.57;2.10;;;19.00;99.90;;;;;;5055855;28;20051;-73
2021/06/14 01:27:07;;;;;;;2.03;1.90;;;19.00;99.90;;;;;;5055971;28;20093;-73
2021/06/14 01:29:35;;;;;;;2.30;2.10;;;19.00;99.90;;;;;;5055915;28;20128;-73
2021/06/14 01:32:02;;;;;;;2.47;1.90;;;19.00;99.90;;;;;;5055545;28;20044;-73
2021/06/14 01:34:32;;;;;;;3.10;2.20;;;18.90;99.90;;;;;;5055579;28;20498;-73
2021/06/14 01:37:00;;;;;;;2.97;2.25;;;18.90;99.90;;;;;;5055525;28;20041;-73
2021/06/14 01:39:29;;;;;;;2.20;2.00;;;18.90;99.90;;;;;;5055412;28;20118;-73
2021/06/14 01:41:56;;;;;;;2.17;2.00;;;18.80;99.90;;;;;;5055431;28;20040;-73
2021/06/14 01:44:24;;;;;;;2.65;2.25;;;18.80;99.90;;;;;;5055406;28;20496;-73
2021/06/14 01:46:53;;;;;;;2.30;2.10;;;18.80;99.90;;;;;;5055417;28;20041;-74
2021/06/14 01:49:20;;;;;;;3.70;2.20;;;18.70;99.90;;;;;;5055136;28;20037;-73
2021/06/14 01:51:46;;;;;;;3.88;2.25;;;18.70;99.90;;;;;;5054967;28;20071;-73
2021/06/14 01:54:12;;;;;;;3.30;2.10;;;18.70;99.90;;;;;;5054872;28;20057;-73
2021/06/14 01:56:45;;;;;;;3.25;2.10;;;18.60;99.90;;;;;;5055144;28;20049;-73
2021/06/14 01:59:19;;;;;;;3.97;2.30;;;18.60;99.90;;;;;;5055278;28;20072;-73
2021/06/14 02:01:47;;;;;;;2.42;2.22;;;18.60;99.90;;;;;;5055002;28;20496;-73
2021/06/14 02:04:14;;;;;;;3.05;2.00;;;18.60;99.90;;;;;;5055036;28;20074;-73
2021/06/14 02:06:43;;;;;;;2.22;2.00;;;18.50;99.90;;;;;;5054919;28;20032;-73
2021/06/14 02:09:11;;;;;;;2.65;2.25;;;18.50;99.90;;;;;;5054917;28;20037;-73
2021/06/14 02:11:44;;;;;;;3.40;2.15;;;18.50;99.90;;;;;;5054733;28;20045;-73
2021/06/14 02:14:14;;;;;;;2.10;1.95;;;18.50;99.90;;;;;;5054936;28;20559;-73
2021/06/14 02:16:42;;;;;;;2.53;2.33;;;18.50;99.90;;;;;;5055100;28;20040;-73
2021/06/14 02:19:08;;;;;;;3.47;2.20;;;18.40;99.90;;;;;;5055063;28;20032;-73
2021/06/14 02:21:35;;;;;;;4.60;2.50;;;18.40;99.90;;;;;;5054469;28;20098;-73
2021/06/14 02:24:01;;;;;;;3.65;2.38;;;18.40;99.90;;;;;;5053984;28;20514;-73
2021/06/14 02:26:27;;;;;;;2.45;2.10;;;18.50;99.90;;;;;;5054900;28;20037;-73
2021/06/14 02:28:52;;;;;;;3.83;2.08;;;18.50;99.90;;;;;;5054350;28;20516;-73
2021/06/14 02:31:18;;;;;;;2.35;2.08;;;18.40;99.90;;;;;;5054495;28;20041;-73
2021/06/14 02:33:44;;;;;;;2.80;2.15;;;18.40;99.90;;;;;;5054592;28;20065;-73
2021/06/14 02:36:11;;;;;;;2.75;1.95;;;18.30;99.90;;;;;;5055025;28;20535;-73
2021/06/14 02:38:37;;;;;;;2.38;2.22;;;18.10;99.90;;;;;;5054243;28;20504;-73
2021/06/14 02:41:04;;;;;;;3.05;2.25;;;18.10;99.90;;;;;;5054022;28;20037;-73
2021/06/14 02:43:30;;;;;;;3.17;2.10;;;18.10;99.90;;;;;;5054178;28;20041;-73
2021/06/14 02:45:56;;;;;;;2.47;2.25;;;18.10;99.90;;;;;;5054936;28;20045;-73
2021/06/14 02:48:24;;;;;;;2.75;2.47;;;18.10;99.90;;;;;;5054389;28;20040;-73
2021/06/14 02:50:50;;;;;;;2.30;2.10;;;18.10;99.90;;;;;;5053978;28;20052;-73
2021/06/14 02:53:18;;;;;;;3.65;2.15;;;18.20;99.90;;;;;;5054235;28;20040;-73
2021/06/14 02:55:48;;;;;;;2.38;2.20;;;18.20;99.90;;;;;;5054452;28;20126;-73
2021/06/14 02:58:14;;;;;;;2.35;2.15;;;18.10;99.90;;;;;;5036213;28;20033;-73
2021/06/14 03:00:40;;;;;;;3.05;2.40;;;18.10;99.90;;;;;;5054040;28;20044;-73
2021/06/14 03:03:07;;;;;;;3.03;1.90;;;18.00;99.90;;;;;;5054299;28;20068;-73
2021/06/14 03:05:34;;;;;;;2.97;2.03;;;17.80;99.90;;;;;;5053669;28;20040;-73
2021/06/14 03:08:01;;;;;;;4.68;2.55;;;17.90;99.90;;;;;;5052835;28;20062;-73
2021/06/14 03:10:29;;;;;;;3.47;2.53;;;18.00;99.90;;;;;;5053312;28;20369;-73
2021/06/14 03:12:56;;;;;;;3.80;2.15;;;17.80;99.90;;;;;;5053505;28;20055;-73
2021/06/14 03:15:25;;;;;;;3.30;2.60;;;17.90;99.90;;;;;;5052940;28;20240;-73
2021/06/14 03:17:54;;;;;;;2.83;2.45;;;17.80;99.90;;;;;;5053324;28;20079;-73
2021/06/14 03:20:23;;;;;;;2.55;2.30;;;17.70;99.90;;;;;;5053410;28;20508;-73
2021/06/14 03:22:49;;;;;;;2.72;2.53;;;17.70;99.90;;;;;;5052663;28;20128;-73
2021/06/14 03:25:16;;;;;;;3.13;2.38;;;17.80;99.90;;;;;;5052254;28;20550;-73
2021/06/14 03:27:43;;;;;;;2.38;2.03;;;17.80;99.90;;;;;;5053690;28;20037;-73
2021/06/14 03:30:13;;;;;;;2.70;2.40;;;17.70;99.90;;;;;;5053357;28;20124;-73
2021/06/14 03:32:44;;;;;;;2.67;2.40;;;17.70;99.90;;;;;;5053257;28;20098;-73
2021/06/14 03:35:14;;;;;;;2.63;2.28;;;17.70;99.90;;;;;;5054823;28;20085;-73
2021/06/14 03:37:40;;;;;;;6.07;2.45;;;17.70;99.90;;;;;;5057266;28;20068;-73
2021/06/14 03:40:08;;;;;;;2.40;2.20;;;17.60;99.90;;;;;;5057742;28;20051;-73
2021/06/14 03:42:34;;;;;;;3.80;2.50;;;17.50;99.90;;;;;;5057131;28;20041;-73
2021/06/14 03:45:00;;;;;;;3.40;2.22;;;17.60;99.90;;;;;;5056405;28;20441;-73
2021/06/14 03:47:26;;;;;;;3.45;2.42;;;17.60;99.90;;;;;;5056317;28;20401;-73
2021/06/14 03:49:52;;;;;;;4.38;2.78;;;17.60;99.90;;;;;;5056367;28;20535;-73
2021/06/14 03:52:18;;;;;;;3.97;2.70;;;17.60;99.90;;;;;;5057119;28;20461;-73
2021/06/14 03:54:44;;;;;;;4.60;2.35;;;17.60;99.90;;;;;;5057495;28;20039;-73
2021/06/14 03:57:10;;;;;;;2.97;2.35;;;17.50;99.90;;;;;;5056595;28;20043;-73
2021/06/14 03:59:36;;;;;;;4.90;2.75;;;17.60;99.90;;;;;;5055828;28;20047;-73
2021/06/14 04:02:02;;;;;;;4.38;2.80;;;17.40;99.90;;;;;;5055555;28;20069;-73
2021/06/14 04:06:59;;;;;;;6.53;2.42;;;17.50;99.90;;;;;;5056857;28;20057;-73
2021/06/14 04:09:25;;;;;;;2.67;2.47;;;17.50;99.90;;;;;;5056314;28;20094;-73
2021/06/14 04:11:51;;;;;;;3.63;2.30;;;17.40;99.90;;;;;;5056931;28;20045;-73
2021/06/14 04:14:17;;;;;;;3.47;2.42;;;17.40;99.90;;;;;;5056057;28;20039;-73
2021/06/14 04:16:42;;;;;;;3.30;2.65;;;17.40;99.90;;;;;;5054982;28;20037;-73
2021/06/14 04:19:08;;;;;;;4.20;2.70;;;17.30;99.90;;;;;;5056621;28;20067;-73
2021/06/14 04:21:34;;;;;;;2.83;2.63;;;17.30;99.90;;;;;;5055240;28;20041;-73
2021/06/14 04:24:00;;;;;;;3.92;2.90;;;17.30;99.90;;;;;;5056870;28;20404;-73
2021/06/14 04:26:26;;;;;;;6.82;3.10;;;17.30;99.90;;;;;;5057042;28;20040;-73
2021/06/14 04:28:52;;;;;;;5.85;2.95;;;17.30;99.90;;;;;;5056853;28;20041;-73
2021/06/14 04:31:17;;;;;;;3.00;2.65;;;17.30;99.90;;;;;;5056327;28;20044;-73
2021/06/14 04:33:43;;;;;;;2.72;2.53;;;17.30;99.90;;;;;;5056532;28;20060;-73
2021/06/14 04:36:09;;;;;;;3.55;2.60;;;17.40;99.90;;;;;;5054794;28;20037;-73
2021/06/14 04:38:35;;;;;;;3.67;3.05;;;17.40;99.90;;;;;;5056110;28;20045;-74
2021/06/14 04:41:02;;;;;;;2.72;2.53;;;17.40;99.90;;;;;;5056368;28;20516;-74
2021/06/14 04:43:28;;;;;;;4.28;2.67;;;17.40;99.90;;;;;;5056064;28;20040;-74
2021/06/14 04:45:54;;;;;;;3.55;2.88;;;17.30;99.90;;;;;;5056651;28;20041;-74
2021/06/14 04:48:20;;;;;;;7.57;3.03;;;17.20;99.90;;;;;;5056042;28;20037;-73
2021/06/14 04:50:46;;;;;;;4.50;3.10;;;17.40;99.90;;;;;;5053762;28;20091;-74
2021/06/14 04:53:12;;;;;;;3.45;2.92;;;17.40;99.90;;;;;;5055049;28;20045;-74
2021/06/14 04:55:38;;;;;;;10.02;3.30;;;17.40;99.90;;;;;;5055469;28;20045;-74
2021/06/14 04:58:04;;;;;;;3.22;2.92;;;17.30;99.90;;;;;;5055649;28;20069;-73
2021/06/14 05:00:29;;;;;;;2.88;2.63;;;17.30;99.90;;;;;;5055004;28;20524;-74
2021/06/14 05:02:55;;;;;;;4.78;2.80;;;17.40;99.90;;;;;;5055379;28;20037;-74
2021/06/14 05:05:21;;;;;;;3.75;2.50;;;17.40;99.90;;;;;;5056313;28;20044;-73
2021/06/14 05:07:47;;;;;;;2.50;2.22;;;17.40;99.90;;;;;;5054303;28;20073;-73
2021/06/14 05:10:13;;;;;;;4.50;3.08;;;17.40;99.90;;;;;;5054305;28;20526;-73
2021/06/14 05:12:39;;;;;;;3.47;2.80;;;17.30;99.90;;;;;;5054416;28;20052;-73
2021/06/14 05:15:06;;;;;;;4.55;2.70;;;17.50;99.90;;;;;;5055110;28;20033;-73
2021/06/14 05:17:32;;;;;;;2.78;2.58;;;18.10;99.90;;;;;;5055255;28;20443;-73
2021/06/14 05:19:58;;;;;;;3.65;2.63;;;18.40;99.90;;;;;;5052369;28;20049;-73
2021/06/14 05:22:24;;;;;;;3.28;2.97;;;18.70;99.90;;;;;;5054126;28;20055;-73
2021/06/14 05:24:50;;;;;;;3.83;2.35;;;18.90;99.90;;;;;;5052516;28;20112;-78
2021/06/14 05:27:16;;;;;;;3.53;2.88;;;19.40;99.90;;;;;;5054546;28;20041;-73
2021/06/14 05:29:41;;;;;;;2.63;2.40;;;19.90;99.90;;;;;;5053550;28;20500;-73
2021/06/14 05:32:08;;;;;;;2.50;2.30;;;20.40;99.90;;;;;;5054918;28;20051;-79
2021/06/14 05:34:34;;;;;;;3.25;2.25;;;20.50;99.90;;;;;;5036817;28;20123;-73
2021/06/14 05:36:59;;;;;;;2.75;2.55;;;20.60;99.90;;;;;;5054138;28;20072;-74
2021/06/14 05:39:25;;;;;;;3.85;2.50;;;21.00;99.90;;;;;;5054748;28;20048;-73
2021/06/14 05:41:51;;;;;;;2.92;2.25;;;21.70;99.90;;;;;;5054256;28;20045;-74
2021/06/14 05:44:17;;;;;;;1.92;1.83;;;24.20;84.30;;;;;;5055066;28;20048;-74
2021/06/14 05:46:43;;;;;;;4.15;2.55;;;27.20;48.30;;;;;;5055367;28;20037;-74
2021/06/14 05:49:09;;;;;;;2.42;2.22;;;29.20;23.50;;;;;;5055177;28;20555;-74
2021/06/14 05:51:35;;;;;;;4.15;2.30;;;30.20;14.30;;;;;;5055011;28;20152;-74
2021/06/14 05:54:01;;;;;;;2.97;2.20;;;31.20;8.00;;;;;;5055142;28;20119;-74
2021/06/14 05:56:27;;;;;;;1.95;1.85;;;32.40;4.30;;;;;;5055305;28;20124;-74
2021/06/14 05:58:53;;;;;;;2.60;2.05;;;32.50;3.70;;;;;;5054209;28;20500;-74
2021/06/14 06:01:19;;;;;;;2.60;1.98;;;32.40;1.00;;;;;;5055101;28;20148;-74
2021/06/14 06:03:45;;;;;;;3.35;2.00;;;33.30;1.10;;;;;;5055252;28;20087;-74
2021/06/14 06:06:10;;;;;;;3.70;1.80;;;33.70;1.00;;;;;;5054997;28;20377;-74
2021/06/14 06:08:36;;;;;;;5.93;2.00;;;33.90;1.00;;;;;;5055301;28;20053;-74
2021/06/14 06:11:03;;;;;;;2.30;2.10;;;34.60;1.00;;;;;;5054924;28;20060;-74
2021/06/14 06:13:29;;;;;;;1.98;1.80;;;34.70;1.00;;;;;;5055531;28;20043;-74
2021/06/14 06:15:55;;;;;;;2.50;2.30;;;35.20;1.00;;;;;;5055565;28;20037;-74
2021/06/14 06:18:21;;;;;;;3.08;2.03;;;35.50;1.00;;;;;;5055059;28;20033;-74
2021/06/14 06:20:47;;;;;;;2.10;1.90;;;35.70;1.00;;;;;;5054999;28;20043;-74
2021/06/14 06:23:12;;;;;;;3.85;2.28;;;36.00;1.00;;;;;;5054986;28;20037;-74
2021/06/14 06:25:38;;;;;;;2.85;2.42;;;34.60;1.00;;;;;;5055320;28;20059;-74
2021/06/14 06:28:04;;;;;;;3.03;2.00;;;36.10;1.00;;;;;;5055046;28;20044;-74
2021/06/14 06:30:37;;;;;;;3.05;2.00;;;35.20;1.00;;;;;;5055427;28;20489;-75
2021/06/14 06:33:08;;;;;;;4.53;2.22;;;36.90;1.00;;;;;;5054608;28;20056;-74
2021/06/14 06:35:35;;;;;;;5.57;2.25;;;37.20;1.00;;;;;;5055517;28;20041;-74
2021/06/14 06:38:01;;;;;;;4.97;2.08;;;37.00;1.00;;;;;;5054522;28;20041;-74
2021/06/14 06:40:27;;;;;;;4.05;2.30;;;38.00;1.00;;;;;;5054574;28;20037;-74
2021/06/14 06:42:54;;;;;;;7.03;2.40;;;36.70;1.00;;;;;;5054695;28;20037;-74
2021/06/14 06:45:20;;;;;;;4.82;2.03;;;35.20;1.00;;;;;;5054740;28;20033;-74
2021/06/14 06:47:46;;;;;;;3.35;1.90;;;37.20;1.00;;;;;;5054365;28;20052;-74
2021/06/14 06:50:12;;;;;;;5.60;2.38;;;38.00;1.00;;;;;;5054905;28;20045;-75
2021/06/14 06:52:39;;;;;;;3.42;2.03;;;38.00;1.00;;;;;;5053660;28;20123;-75
2021/06/14 06:55:11;;;;;;;3.13;2.35;;;39.30;1.00;;;;;;5052405;28;20037;-75
2021/06/14 06:57:37;;;;;;;2.40;2.10;;;39.30;1.00;;;;;;5053605;28;20408;-75
2021/06/14 07:00:13;;;;;;;7.28;2.40;;;39.30;1.00;;;;;;5052221;28;20041;-75
2021/06/14 07:02:39;;;;;;;3.30;2.17;;;39.50;1.00;;;;;;5040664;28;20057;-75
2021/06/14 07:05:05;;;;;;;2.20;2.10;;;39.70;1.00;;;;;;5053188;28;20127;-75
2021/06/14 07:07:31;;;;;;;2.75;1.95;;;39.30;1.00;;;;;;5052297;28;20049;-75
2021/06/14 07:09:58;;;;;;;3.13;2.05;;;40.10;1.00;;;;;;5054512;28;20051;-75
2021/06/14 07:12:24;;;;;;;2.70;2.05;;;40.30;1.00;;;;;;5056419;28;20037;-75
2021/06/14 07:14:51;;;;;;;2.47;1.80;;;41.00;1.00;;;;;;5057225;28;20511;-75
2021/06/14 07:17:16;;;;;;;3.35;1.88;;;40.40;1.00;;;;;;5058061;28;20045;-75
2021/06/14 07:19:43;;;;;;;3.67;2.30;;;41.00;1.00;;;;;;5057932;28;20040;-75
2021/06/14 07:22:09;;;;;;;2.20;2.10;;;40.80;1.00;;;;;;5057986;28;20067;-75
2021/06/14 07:24:35;;;;;;;6.18;2.25;;;41.10;1.00;;;;;;5058302;28;20040;-75
2021/06/14 07:27:01;;;;;;;7.78;2.20;;;41.80;1.00;;;;;;5058209;28;20037;-75
2021/06/14 07:29:28;;;;;;;4.57;2.47;;;42.20;1.00;;;;;;5057921;28;20124;-75
2021/06/14 07:31:57;;;;;;;3.35;2.17;;;41.20;1.00;;;;;;5057683;28;20381;-75
2021/06/14 07:34:23;;;;;;;3.15;1.98;;;42.20;1.00;;;;;;5043834;28;20143;-75
2021/06/14 07:36:49;;;;;;;3.28;2.38;;;41.60;1.00;;;;;;5053565;28;20040;-75
2021/06/14 07:39:15;;;;;;;4.45;2.03;;;42.00;1.00;;;;;;5057101;28;20043;-75
2021/06/14 07:41:42;;;;;;;5.38;2.08;;;42.70;1.00;;;;;;5057587;28;20059;-75
2021/06/14 07:44:08;;;;;;;2.55;1.75;;;41.70;1.00;;;;;;5057908;28;20033;-75
2021/06/14 07:46:34;;;;;;;2.40;2.15;;;41.60;1.00;;;;;;5052031;28;20056;-76
2021/06/14 07:49:00;;;;;;;4.07;2.05;;;41.80;1.00;;;;;;5038039;28;20061;-75
2021/06/14 07:51:26;;;;;;;5.70;1.98;;;41.80;1.00;;;;;;5037635;28;20081;-76
2021/06/14 07:53:53;;;;;;;2.80;2.00;;;41.10;1.00;;;;;;5037825;28;20045;-75
2021/06/14 07:56:19;;;;;;;2.35;2.08;;;38.70;1.00;;;;;;5035465;28;20041;-75
2021/06/14 07:58:48;;;;;;;4.50;2.10;;;35.80;1.00;;;;;;5035670;28;20056;-76
2021/06/14 08:01:15;;;;;;;6.65;2.22;;;33.40;4.10;;;;;;5034133;28;20110;-75
2021/06/14 08:03:41;;;;;;;2.35;1.77;;;31.90;8.20;;;;;;5035172;28;20037;-75
2021/06/14 08:06:08;;;;;;;4.50;1.98;;;30.90;17.50;;;;;;5037297;28;20132;-75
2021/06/14 08:08:35;;;;;;;2.97;2.03;;;30.10;23.70;;;;;;5037252;28;20063;-76
2021/06/14 08:11:02;;;;;;;3.95;1.88;;;29.30;32.80;;;;;;5035466;28;20045;-75
2021/06/14 08:13:29;;;;;;;1.92;1.73;;;29.10;36.30;;;;;;5036949;28;20071;-75
2021/06/14 08:15:55;;;;;;;2.88;2.00;;;28.90;42.40;;;;;;5037008;28;20087;-75
2021/06/14 08:18:43;;;;;;;6.63;2.00;;;28.70;47.60;;;;;;5037087;28;20188;-75
2021/06/14 08:26:29;;;;;;;1.92;1.70;;;28.40;46.70;;;;;;5036325;28;20083;-74
2021/06/14 08:28:58;;;;;;;2.85;1.67;;;28.30;49.00;;;;;;5035852;28;20037;-74
2021/06/14 08:31:25;;;;;;;1.92;1.83;;;28.20;45.40;;;;;;5034636;28;20045;-75
2021/06/14 08:33:51;;;;;;;3.38;1.95;;;28.10;55.10;;;;;;5036521;28;20088;-75
2021/06/14 08:36:18;;;;;;;3.38;1.65;;;28.10;53.00;;;;;;5036954;28;20492;-74
2021/06/14 08:38:44;;;;;;;6.28;2.30;;;28.00;54.80;;;;;;5036748;28;20037;-75
2021/06/14 08:41:10;;;;;;;7.68;2.45;;;27.90;53.50;;;;;;5034766;28;20472;-75
2021/06/14 08:43:36;;;;;;;3.33;1.77;;;27.90;47.20;;;;;;5055162;28;20507;-75
2021/06/14 08:46:02;;;;;;;2.75;1.90;;;27.80;51.60;;;;;;5056694;28;20558;-75
2021/06/14 08:48:30;;;;;;;6.25;2.90;;;27.90;49.10;;;;;;5056204;28;20128;-75
2021/06/14 08:50:56;;;;;;;1.80;1.70;;;27.80;53.20;;;;;;5056410;28;20051;-74
2021/06/14 08:53:22;;;;;;;2.83;1.90;;;27.80;48.30;;;;;;5056680;28;20041;-74
2021/06/14 08:55:49;;;;;;;1.95;1.80;;;27.60;50.50;;;;;;5056408;28;20033;-74
2021/06/14 08:58:15;;;;;;;1.95;1.75;;;27.60;52.10;;;;;;5056351;28;20040;-75
2021/06/14 09:00:41;;;;;;;5.68;2.33;;;27.60;52.20;;;;;;5055850;28;20033;-75
2021/06/14 09:03:06;;;;;;;3.70;2.30;;;27.60;59.40;;;;;;5056187;28;20549;-75
2021/06/14 09:05:32;;;;;;;2.30;2.10;;;27.60;56.90;;;;;;5056750;28;20068;-75
2021/06/14 09:08:04;;;;;;;2.53;1.58;;;27.60;50.00;;;;;;5055192;28;20416;-75
2021/06/14 09:10:32;;;;;;;4.45;2.00;;;27.60;48.00;;;;;;5054146;28;20044;-75
2021/06/14 09:13:25;;;;;;;5.32;1.88;;;27.60;45.60;;;;;;5048717;28;20136;-74
2021/06/14 09:16:09;;;;;;;3.67;1.80;;;27.70;37.60;;;;;;5055724;28;20029;-75
2021/06/14 09:18:35;;;;;;;4.13;1.80;;;27.60;42.60;;;;;;5055967;28;20037;-75
2021/06/14 09:21:14;;;;;;;2.47;1.80;;;27.60;35.80;;;;;;5056090;28;20052;-77
2021/06/14 09:23:52;;;;;;;2.13;1.92;;;27.70;36.20;;;;;;5054605;28;20040;-78
2021/06/14 09:26:31;;;;;;;2.80;1.67;;;27.70;39.50;;;;;;5054023;28;20037;-77
2021/06/14 09:29:04;;;;;;;4.55;1.80;;;27.60;35.10;;;;;;5056611;28;20037;-76
2021/06/14 09:31:39;;;;;;;6.53;1.75;;;27.70;36.20;;;;;;5055697;28;20127;-76
2021/06/14 09:34:05;;;;;;;4.03;1.50;;;27.70;26.80;;;;;;5054669;28;20051;-76
2021/06/14 09:36:31;;;;;;;4.22;1.75;;;27.70;25.00;;;;;;5056121;28;20040;-76
2021/06/14 09:39:08;;;;;;;3.58;1.38;;;27.60;17.90;;;;;;5055317;28;20037;-76
2021/06/14 09:41:40;;;;;;;2.08;1.30;;;27.80;12.30;;;;;;5053749;28;20041;-75
2021/06/14 09:44:06;;;;;;;2.83;1.48;;;27.80;10.40;;;;;;5054226;28;20040;-75
2021/06/14 09:46:33;;;;;;;3.10;1.75;;;27.70;12.70;;;;;;5055397;28;20507;-75
2021/06/14 09:49:04;;;;;;;5.75;1.83;;;27.70;17.10;;;;;;5055345;28;20037;-75
2021/06/14 09:51:31;;;;;;;3.30;1.60;;;27.70;23.40;;;;;;5054146;28;20116;-75
2021/06/14 09:53:57;;;;;;;1.25;1.25;;;27.70;17.40;;;;;;5055373;28;20041;-75
2021/06/14 09:56:26;;;;;;;1.60;1.30;;;27.80;15.70;;;;;;5055142;28;20355;-75
2021/06/14 09:58:54;;;;;;;1.27;1.20;;;27.80;14.30;;;;;;5055393;28;20060;-75
2021/06/14 10:01:26;;;;;;;1.55;1.30;;;27.80;10.60;;;;;;5048462;28;20638;-75
2021/06/14 10:03:53;;;;;;;5.50;1.98;;;27.70;16.00;;;;;;5054504;28;20126;-75
2021/06/14 10:06:32;;;;;;;1.95;0.95;;;27.80;6.60;;;;;;5054541;28;20084;-75
2021/06/14 10:08:58;;;;;;;2.95;1.80;;;27.80;5.60;;;;;;5054141;28;20515;-76
2021/06/14 10:11:32;;;;;;;1.38;1.30;;;27.80;5.40;;;;;;5052434;28;20045;-76
2021/06/14 10:14:15;;;;;;;1.10;1.00;;;27.80;7.60;;;;;;5053298;28;20127;-76
2021/06/14 10:16:47;;;;;;;1.50;1.00;;;27.70;9.00;;;;;;5052649;28;20507;-77
2021/06/14 10:19:15;;;;;;;1.63;1.17;;;27.80;8.80;;;;;;5051824;28;20142;-77
2021/06/14 10:21:46;;;;;;;0.80;0.80;;;27.80;8.80;;;;;;5053500;28;20040;-78
2021/06/14 10:24:17;;;;;;;2.13;1.05;;;27.80;9.10;;;;;;5054186;28;20098;-77
2021/06/14 10:26:45;;;;;;;2.45;1.02;;;27.80;8.60;;;;;;5054450;28;20125;-77
2021/06/14 10:29:14;;;;;;;1.98;1.05;;;27.80;7.00;;;;;;5053411;28;20069;-77
2021/06/14 10:31:42;;;;;;;2.38;0.90;;;27.90;9.50;;;;;;5052590;28;20083;-77
2021/06/14 10:34:11;;;;;;;1.20;1.05;;;27.70;9.20;;;;;;5054336;28;20052;-80
2021/06/14 10:36:39;;;;;;;2.58;1.00;;;27.80;10.70;;;;;;5035863;28;20029;-81
2021/06/14 10:39:05;;;;;;;1.45;1.10;;;27.80;11.80;;;;;;5053720;28;20033;-79
2021/06/14 10:41:31;;;;;;;0.90;0.90;;;27.80;11.90;;;;;;5053805;28;20041;-79
2021/06/14 10:43:57;;;;;;;2.50;1.00;;;27.90;11.30;;;;;;5035270;28;20037;-79
2021/06/14 10:46:26;;;;;;;1.30;1.20;;;27.90;9.70;;;;;;5053517;28;20325;-79
2021/06/14 10:49:00;;;;;;;2.33;1.10;;;27.80;10.10;;;;;;5053497;28;20127;-78
2021/06/14 10:51:26;;;;;;;1.65;1.00;;;27.90;9.50;;;;;;5052878;28;20555;-79
2021/06/14 10:54:05;;;;;;;1.48;1.10;;;27.80;11.60;;;;;;5052842;28;20120;-79
2021/06/14 10:56:31;;;;;;;1.42;1.10;;;28.00;10.90;;;;;;5053617;28;20491;-78
2021/06/14 10:59:01;;;;;;;1.17;1.17;;;28.00;12.70;;;;;;5054603;28;20098;-79
2021/06/14 11:01:32;;;;;;;2.20;1.25;;;27.90;14.10;;;;;;5054308;28;20056;-80
2021/06/14 11:03:59;;;;;;;1.60;1.20;;;28.00;20.00;;;;;;5054536;28;20106;-79
2021/06/14 11:06:28;;;;;;;2.85;1.70;;;28.00;23.20;;;;;;5054637;28;20079;-79
2021/06/14 11:09:13;;;;;;;1.50;1.40;;;27.90;24.10;;;;;;5053614;28;20045;-79
2021/06/14 11:11:58;;;;;;;2.75;1.60;;;27.90;22.60;;;;;;5054451;28;20041;-79
2021/06/14 11:14:42;;;;;;;2.53;1.23;;;27.90;24.40;;;;;;5054813;28;20044;-80
2021/06/14 11:17:21;;;;;;;1.27;1.20;;;28.00;21.60;;;;;;5054688;28;20032;-77
2021/06/14 11:20:09;;;;;;;1.83;1.10;;;28.00;17.60;;;;;;5053843;28;20041;-78
2021/06/14 11:22:47;;;;;;;2.72;1.50;;;28.00;19.00;;;;;;5054414;28;20121;-76
2021/06/14 11:25:29;;;;;;;3.60;1.67;;;28.00;15.20;;;;;;5053916;28;20124;-76
2021/06/14 11:27:58;;;;;;;1.42;1.33;;;28.00;17.30;;;;;;5054366;28;20033;-76
2021/06/14 11:30:28;;;;;;;1.58;1.48;;;28.00;17.50;;;;;;5053942;28;20041;-76
2021/06/14 11:32:54;;;;;;;2.47;1.48;;;28.00;16.90;;;;;;5054267;28;20033;-76
2021/06/14 11:35:20;;;;;;;1.65;1.38;;;28.00;17.20;;;;;;5054921;28;20122;-76
2021/06/14 11:37:48;;;;;;;2.63;1.42;;;28.00;16.50;;;;;;5047806;28;20041;-76
2021/06/14 11:40:17;;;;;;;2.00;1.85;;;28.00;19.90;;;;;;5053200;28;20072;-76
2021/06/14 11:42:57;;;;;;;1.92;1.38;;;28.00;17.30;;;;;;5048392;28;20045;-77
2021/06/14 11:45:26;;;;;;;3.53;1.50;;;28.00;16.20;;;;;;5051932;28;20139;-76
2021/06/14 11:47:52;;;;;;;1.70;1.55;;;27.90;16.80;;;;;;5051008;28;20037;-75
2021/06/14 11:50:26;;;;;;;1.83;1.55;;;28.00;14.70;;;;;;5051016;28;20107;-76
2021/06/14 11:53:02;;;;;;;1.50;1.40;;;28.00;15.00;;;;;;5050916;28;20041;-76
2021/06/14 11:55:31;;;;;;;3.50;1.30;;;28.30;15.40;;;;;;5049979;28;20041;-77
2021/06/14 11:57:59;;;;;;;1.48;1.40;;;28.10;15.30;;;;;;5034117;28;20075;-76
2021/06/14 12:00:31;;;;;;;1.40;1.30;;;28.20;15.30;;;;;;5036365;28;20053;-76
2021/06/14 12:02:57;;;;;;;1.88;1.38;;;28.10;16.00;;;;;;5051612;28;20414;-77
2021/06/14 12:05:32;;;;;;;1.42;1.30;;;28.20;14.60;;;;;;5056716;28;20033;-76
2021/06/14 12:07:58;;;;;;;2.28;1.60;;;28.20;17.60;;;;;;5056937;28;20057;-76
2021/06/14 12:10:25;;;;;;;1.95;1.60;;;28.20;18.60;;;;;;5055379;28;20045;-76
2021/06/14 12:13:10;;;;;;;1.50;1.25;;;28.10;20.70;;;;;;5055312;28;20135;-76
2021/06/14 12:15:38;;;;;;;1.70;1.42;;;28.20;16.60;;;;;;5056294;28;20091;-76
2021/06/14 12:18:04;;;;;;;1.75;1.33;;;28.30;18.80;;;;;;5056726;28;20123;-76
2021/06/14 12:20:34;;;;;;;1.10;1.10;;;28.10;15.40;;;;;;5055960;28;20037;-76
2021/06/14 12:23:08;;;;;;;1.55;1.38;;;28.30;7.80;;;;;;5056564;28;20029;-76
2021/06/14 12:25:37;;;;;;;1.73;1.17;;;28.30;7.00;;;;;;5056702;28;20044;-76
2021/06/14 12:28:08;;;;;;;4.45;1.42;;;28.40;6.90;;;;;;5056569;28;20090;-76
2021/06/14 12:30:34;;;;;;;0.90;0.90;;;28.40;7.30;;;;;;5055891;28;20041;-76
2021/06/14 12:33:01;;;;;;;2.58;1.42;;;28.30;6.00;;;;;;5056433;28;20044;-76
2021/06/14 12:35:28;;;;;;;2.42;1.17;;;28.30;6.20;;;;;;5055233;28;20392;-75
2021/06/14 12:37:55;;;;;;;2.15;1.05;;;28.40;7.90;;;;;;5055977;28;20044;-75
2021/06/14 12:40:24;;;;;;;1.23;1.08;;;28.40;6.40;;;;;;5055956;28;20508;-76
2021/06/14 12:43:02;;;;;;;1.10;1.00;;;28.30;3.90;;;;;;5055521;28;20041;-75
2021/06/14 12:45:29;;;;;;;5.15;1.00;;;28.40;6.00;;;;;;5056195;28;20037;-76
2021/06/14 12:47:58;;;;;;;1.00;1.00;;;28.40;5.90;;;;;;5055114;28;20037;-75
2021/06/14 12:50:29;;;;;;;1.40;1.25;;;28.40;6.70;;;;;;5054903;28;20037;-76
2021/06/14 12:52:57;;;;;;;2.35;1.40;;;28.40;8.70;;;;;;5055413;28;20056;-75
2021/06/14 12:55:26;;;;;;;3.83;1.20;;;28.30;14.70;;;;;;5055592;28;20037;-76
2021/06/14 12:57:53;;;;;;;1.35;1.25;;;28.50;9.70;;;;;;5055650;28;20198;-76
2021/06/14 13:00:28;;;;;;;1.50;1.08;;;28.50;8.80;;;;;;5054013;28;20122;-77
2021/06/14 13:02:56;;;;;;;1.30;1.20;;;28.60;10.50;;;;;;5055162;28;20044;-76
2021/06/14 13:05:34;;;;;;;5.53;1.80;;;28.60;9.90;;;;;;5055759;28;20065;-76